Aérodrome :
LOGIN :

S'inscrire | Disclaimer

   EN    FR    IT 

 










Légende :    VFR   VFR Marginal   IFR   IFR Intensif   IFR Très Intensif
Visi : 
Plafond : 
>= 8 km
>= 3000ft
5 à 8 km
1000 à 3000 ft
1500m à 5 km
500 à 1000 ft
800 à 1500m
200 à 500 ft
< 800m
< 200 ft
Symboles :   Orages  Brouillard  Fortes neiges  Fortes précipitations  Vent > 20 kt
SIGMETs :   Divers  Orages  Givrage  Turbulence  Onde Orograph.  Cendres Volcan.







- Altitude de l'aérodrome : 257 ft
- Code IATA : MAN
- Voir les cartes d'approche


EGCC - Manchester

DERNIER METAR :
  • 270350Z AUTO VRB04KT 9999 NCD 17/12 Q1011 NOSIG

METARs EXPIRÉS :
  • 270320Z AUTO VRB03KT 9999 NCD 17/11 Q1011
  • 270250Z AUTO 09003KT 9999 NCD 17/11 Q1011 NOSIG
  • 270220Z AUTO VRB03KT 9999 NCD 16/11 Q1012 NOSIG
  • 270150Z AUTO 12005KT 060V180 9999 NCD 18/11 Q1012 NOSIG
  • 270120Z AUTO 14004KT 100V180 9999 NCD 18/11 Q1013 NOSIG

TAF TAF EGCC
Valide du 27 à 00h jusqu'au 28 à 06h UTC


262255Z 2700/2806 10006KT CAVOK
TEMPO 2708/2712 7000 SHRA
PROB40
TEMPO 2708/2710 3000 +SHRAGS TSRA BKN045CB
BECMG 2712/2715 18012KT BKN030
PROB40
TEMPO 2712/2716 3000 +SHRAGS TSRA BKN014 BKN030CB
TEMPO 2716/2806 BKN014
PROB40
TEMPO 2716/2719 7000 SHRA
BECMG 2721/2724 24010KT
PROB40
TEMPO 2721/2806 BKN008
ATIS : +44 161 499 2324
Pas de NOTAMs connus pour ce terrain.
2 SIGMETs publiés pour la FIR London (EGTT) :
 
Orages fréquents
EGTT SIGMET 05 VALID 270300/270600 EGRR
EGTT LONDON FIR FRQ TS FCST WI N5102 W00126 - N5005 W00106 - N5004 W00136 - N5047 W00207 - N5119 W00317 - N5139 W00245 - N5102 W00126 TOP FL350 MOV NNE 20KT WKN=
Orages fréquents
EGTT SIGMET 04 VALID 270200/270600 EGRR
EGTT LONDON FIR FRQ TS OBS WI N5102 W00514 - N5115 W00334 - N5058 W00324 - N5038 W00449 - N5102 W00514 TOP FL380 MOV N 30KT WKN=



MET'MAP, la Météo Aéronautique d'un coup d'oeil ! - Copyright ORBIFLY Décembre 2007 - Disclaimer

ORBIFLY MET'MAP TEAM :

Programmation & Développement : Alexandra Zaïnal
Conception & Développement : Baudouin d'Aumeries
Co-Programmation & Développement : Marc-Olivier Méhu
Soutien technique & logistique : Manuel Goepfert

Contact : metmap@orbifly.com




SOURCES & CREDITS :

   NOAA